sensor_id;sensor_type;location;lat;lon;timestamp;P1;durP1;ratioP1;P2;durP2;ratioP2
12788;SDS011;6458;42.710;23.192;2023-11-19T21:00:25;2.83;;;2.73;;
12788;SDS011;6458;42.710;23.192;2023-11-19T21:02:51;3.27;;;2.97;;
12788;SDS011;6458;42.710;23.192;2023-11-19T21:05:20;5.47;;;5.03;;
12788;SDS011;6458;42.710;23.192;2023-11-19T21:07:47;6.17;;;5.60;;
12788;SDS011;6458;42.710;23.192;2023-11-19T21:10:14;2.60;;;2.47;;
12788;SDS011;6458;42.710;23.192;2023-11-19T21:12:41;1.97;;;1.90;;
12788;SDS011;6458;42.710;23.192;2023-11-19T21:15:08;2.00;;;1.90;;
12788;SDS011;6458;42.710;23.192;2023-11-19T21:17:38;2.10;;;2.00;;
12788;SDS011;6458;42.710;23.192;2023-11-19T21:20:07;4.20;;;2.97;;
12788;SDS011;6458;42.710;23.192;2023-11-19T21:22:34;2.80;;;2.60;;
12788;SDS011;6458;42.710;23.192;2023-11-19T21:25:01;3.00;;;2.80;;
12788;SDS011;6458;42.710;23.192;2023-11-19T21:27:29;3.03;;;2.77;;
12788;SDS011;6458;42.710;23.192;2023-11-19T21:29:56;2.90;;;2.73;;
12788;SDS011;6458;42.710;23.192;2023-11-19T21:32:24;2.33;;;2.23;;
12788;SDS011;6458;42.710;23.192;2023-11-19T21:34:52;2.40;;;2.30;;
12788;SDS011;6458;42.710;23.192;2023-11-19T21:37:19;2.40;;;2.20;;
12788;SDS011;6458;42.710;23.192;2023-11-19T21:39:46;2.00;;;1.90;;
12788;SDS011;6458;42.710;23.192;2023-11-19T21:42:13;1.90;;;1.90;;
12788;SDS011;6458;42.710;23.192;2023-11-19T21:44:41;1.87;;;1.77;;
12788;SDS011;6458;42.710;23.192;2023-11-19T21:47:08;2.17;;;2.07;;
12788;SDS011;6458;42.710;23.192;2023-11-19T21:49:35;1.97;;;1.87;;
12788;SDS011;6458;42.710;23.192;2023-11-19T21:52:05;1.90;;;1.90;;
12788;SDS011;6458;42.710;23.192;2023-11-19T21:54:34;2.50;;;2.40;;
12788;SDS011;6458;42.710;23.192;2023-11-19T21:57:01;4.90;;;4.17;;
12788;SDS011;6458;42.710;23.192;2023-11-19T21:59:29;4.20;;;3.80;;
12788;SDS011;6458;42.710;23.192;2023-11-19T22:01:57;3.97;;;3.67;;
12788;SDS011;6458;42.710;23.192;2023-11-19T22:04:24;5.57;;;4.10;;
12788;SDS011;6458;42.710;23.192;2023-11-19T22:09:45;4.77;;;3.33;;
12788;SDS011;6458;42.710;23.192;2023-11-19T22:12:12;4.73;;;3.23;;
12788;SDS011;6458;42.710;23.192;2023-11-19T22:14:40;3.63;;;3.37;;
12788;SDS011;6458;42.710;23.192;2023-11-19T22:17:07;2.77;;;2.57;;
12788;SDS011;6458;42.710;23.192;2023-11-19T22:19:35;2.73;;;2.53;;
12788;SDS011;6458;42.710;23.192;2023-11-19T22:22:02;2.30;;;2.13;;
12788;SDS011;6458;42.710;23.192;2023-11-19T22:24:31;2.80;;;2.60;;
12788;SDS011;6458;42.710;23.192;2023-11-19T22:26:59;2.40;;;2.30;;
12788;SDS011;6458;42.710;23.192;2023-11-19T22:29:27;2.47;;;2.23;;
12788;SDS011;6458;42.710;23.192;2023-11-19T22:31:54;2.67;;;2.53;;
12788;SDS011;6458;42.710;23.192;2023-11-19T22:34:21;3.37;;;3.07;;
12788;SDS011;6458;42.710;23.192;2023-11-19T22:36:48;2.83;;;2.63;;
12788;SDS011;6458;42.710;23.192;2023-11-19T22:39:16;2.77;;;2.57;;
12788;SDS011;6458;42.710;23.192;2023-11-19T22:41:44;2.40;;;2.20;;
12788;SDS011;6458;42.710;23.192;2023-11-19T22:44:11;3.70;;;3.40;;
12788;SDS011;6458;42.710;23.192;2023-11-19T22:46:39;3.07;;;2.87;;
12788;SDS011;6458;42.710;23.192;2023-11-19T22:49:06;3.00;;;2.80;;
12788;SDS011;6458;42.710;23.192;2023-11-19T22:51:33;4.57;;;4.13;;
12788;SDS011;6458;42.710;23.192;2023-11-19T22:54:00;4.63;;;3.20;;
12788;SDS011;6458;42.710;23.192;2023-11-19T22:56:31;2.20;;;2.10;;
12788;SDS011;6458;42.710;23.192;2023-11-19T22:59:00;2.03;;;1.83;;
12788;SDS011;6458;42.710;23.192;2023-11-19T23:01:29;3.83;;;2.90;;
12788;SDS011;6458;42.710;23.192;2023-11-19T23:03:57;2.30;;;2.20;;
12788;SDS011;6458;42.710;23.192;2023-11-19T23:06:24;3.20;;;3.00;;
12788;SDS011;6458;42.710;23.192;2023-11-19T23:08:51;4.23;;;2.70;;
12788;SDS011;6458;42.710;23.192;2023-11-19T23:11:18;2.40;;;2.30;;
12788;SDS011;6458;42.710;23.192;2023-11-19T23:13:46;3.23;;;3.03;;
12788;SDS011;6458;42.710;23.192;2023-11-19T23:16:14;3.43;;;2.87;;
12788;SDS011;6458;42.710;23.192;2023-11-19T23:18:43;3.30;;;3.00;;
12788;SDS011;6458;42.710;23.192;2023-11-19T23:21:10;3.77;;;3.40;;
12788;SDS011;6458;42.710;23.192;2023-11-19T23:23:39;3.40;;;3.10;;
12788;SDS011;6458;42.710;23.192;2023-11-19T23:26:06;2.80;;;2.50;;
12788;SDS011;6458;42.710;23.192;2023-11-19T23:28:33;3.97;;;2.60;;
12788;SDS011;6458;42.710;23.192;2023-11-19T23:31:00;3.57;;;2.97;;
12788;SDS011;6458;42.710;23.192;2023-11-19T23:33:29;8.10;;;6.03;;
12788;SDS011;6458;42.710;23.192;2023-11-19T23:35:56;4.63;;;4.10;;
12788;SDS011;6458;42.710;23.192;2023-11-19T23:38:23;10.47;;;7.93;;
12788;SDS011;6458;42.710;23.192;2023-11-19T23:40:50;13.57;;;8.27;;
12788;SDS011;6458;42.710;23.192;2023-11-19T23:43:19;11.57;;;7.60;;
12788;SDS011;6458;42.710;23.192;2023-11-19T23:45:46;5.23;;;4.23;;
12788;SDS011;6458;42.710;23.192;2023-11-19T23:48:13;6.00;;;5.40;;
12788;SDS011;6458;42.710;23.192;2023-11-19T23:50:41;6.53;;;5.10;;
12788;SDS011;6458;42.710;23.192;2023-11-19T23:53:08;4.63;;;3.80;;
12788;SDS011;6458;42.710;23.192;2023-11-19T23:55:38;5.73;;;4.23;;
12788;SDS011;6458;42.710;23.192;2023-11-19T23:58:05;7.50;;;6.17;;
